Main page
METAR-TAF:

METAR-TAF

Airports :

Kavala, Greece

Kavala International Airport

latitude: 40-59N, longitude: 024-36E, elevation: 5 m

Current weather observation

The report was made 28 minutes ago, at 18:20 UTC
Wind 6 kt from the North/Northeast
Temperature 4°C
Humidity 70%
Pressure 1027 hPa
Visibility 10 km or more
Broken clouds at a height of 2500 ft
Broken clouds at a height of 7000 ft

METAR: LGKV 231820Z 02006KT 9999 BKN025 BKN070 04/M01 Q1027

Time: 20:48 (18:48 UTC)

Forecast

The report was made 1 hour and 48 minutes ago, at 17:00 UTC
Forecast valid from 23 at 18 UTC to 24 at 03 UTC
Wind 12 kt from the Northeast
Visibility 10 km or more
Few clouds at a height of 1800 ft
Broken clouds at a height of 3000 ft

TAF: LGKV 231700Z 2318/2403 05012KT 9999 FEW018 BKN030

Weather observations and forecasts of more than 4000 airports (METAR and TAF reports).

The available stations are represented by yellow and red dots on the map.

Hover mouse over dot to see the name of the station.

Then click to see weather observations and forecasts.

To change the map : click on the green buttons with a black cross to zoom in, on the green button with a dash to zoom out, or on the green arrows for adjacent maps.


METAR-TAF: